sensor_id;sensor_type;location;lat;lon;timestamp;P1;durP1;ratioP1;P2;durP2;ratioP2
151;SDS011;68;48.792;9.164;2023-02-01T00:00:31;8.48;;;6.53;;
151;SDS011;68;48.792;9.164;2023-02-01T00:02:59;8.63;;;6.28;;
151;SDS011;68;48.792;9.164;2023-02-01T00:05:26;9.68;;;6.63;;
151;SDS011;68;48.792;9.164;2023-02-01T00:07:53;6.20;;;5.30;;
151;SDS011;68;48.792;9.164;2023-02-01T00:10:19;7.05;;;5.88;;
151;SDS011;68;48.792;9.164;2023-02-01T00:12:46;7.10;;;5.80;;
151;SDS011;68;48.792;9.164;2023-02-01T00:15:13;7.32;;;5.63;;
151;SDS011;68;48.792;9.164;2023-02-01T00:17:41;6.28;;;4.95;;
151;SDS011;68;48.792;9.164;2023-02-01T00:20:08;6.85;;;5.55;;
151;SDS011;68;48.792;9.164;2023-02-01T00:22:36;6.60;;;5.10;;
151;SDS011;68;48.792;9.164;2023-02-01T00:25:03;5.93;;;5.15;;
151;SDS011;68;48.792;9.164;2023-02-01T00:27:30;6.97;;;4.63;;
151;SDS011;68;48.792;9.164;2023-02-01T00:29:57;5.60;;;4.93;;
151;SDS011;68;48.792;9.164;2023-02-01T00:32:24;5.88;;;4.50;;
151;SDS011;68;48.792;9.164;2023-02-01T00:34:52;6.50;;;5.32;;
151;SDS011;68;48.792;9.164;2023-02-01T00:37:19;4.78;;;4.32;;
151;SDS011;68;48.792;9.164;2023-02-01T00:39:46;5.00;;;4.70;;
151;SDS011;68;48.792;9.164;2023-02-01T00:42:13;5.28;;;4.65;;
151;SDS011;68;48.792;9.164;2023-02-01T00:44:39;4.30;;;4.00;;
151;SDS011;68;48.792;9.164;2023-02-01T00:47:06;4.97;;;4.70;;
151;SDS011;68;48.792;9.164;2023-02-01T00:49:33;8.23;;;4.45;;
151;SDS011;68;48.792;9.164;2023-02-01T00:52:01;4.95;;;4.25;;
151;SDS011;68;48.792;9.164;2023-02-01T00:54:28;4.60;;;4.30;;
151;SDS011;68;48.792;9.164;2023-02-01T00:56:55;4.28;;;3.92;;
151;SDS011;68;48.792;9.164;2023-02-01T00:59:21;6.15;;;4.72;;
151;SDS011;68;48.792;9.164;2023-02-01T01:01:48;4.68;;;4.25;;
151;SDS011;68;48.792;9.164;2023-02-01T01:04:15;4.88;;;4.10;;
151;SDS011;68;48.792;9.164;2023-02-01T01:06:42;6.10;;;4.53;;
151;SDS011;68;48.792;9.164;2023-02-01T01:09:10;5.05;;;4.25;;
151;SDS011;68;48.792;9.164;2023-02-01T01:11:37;4.40;;;4.10;;
151;SDS011;68;48.792;9.164;2023-02-01T01:14:04;4.70;;;3.92;;
151;SDS011;68;48.792;9.164;2023-02-01T01:16:32;6.18;;;4.68;;
151;SDS011;68;48.792;9.164;2023-02-01T01:19:00;5.38;;;4.60;;
151;SDS011;68;48.792;9.164;2023-02-01T01:21:27;8.00;;;4.28;;
151;SDS011;68;48.792;9.164;2023-02-01T01:23:54;6.47;;;4.93;;
151;SDS011;68;48.792;9.164;2023-02-01T01:26:23;7.45;;;4.13;;
151;SDS011;68;48.792;9.164;2023-02-01T01:28:52;4.78;;;4.20;;
151;SDS011;68;48.792;9.164;2023-02-01T01:31:21;4.70;;;3.90;;
151;SDS011;68;48.792;9.164;2023-02-01T01:33:48;4.90;;;4.18;;
151;SDS011;68;48.792;9.164;2023-02-01T01:36:16;4.30;;;3.95;;
151;SDS011;68;48.792;9.164;2023-02-01T01:38:42;4.75;;;3.95;;
151;SDS011;68;48.792;9.164;2023-02-01T01:41:12;5.00;;;4.00;;
151;SDS011;68;48.792;9.164;2023-02-01T01:43:49;3.80;;;3.45;;
151;SDS011;68;48.792;9.164;2023-02-01T01:46:18;3.30;;;3.13;;
151;SDS011;68;48.792;9.164;2023-02-01T01:48:47;3.88;;;3.60;;
151;SDS011;68;48.792;9.164;2023-02-01T01:51:17;4.30;;;3.70;;
151;SDS011;68;48.792;9.164;2023-02-01T01:53:47;4.50;;;3.45;;
151;SDS011;68;48.792;9.164;2023-02-01T01:56:20;4.35;;;3.55;;
151;SDS011;68;48.792;9.164;2023-02-01T01:58:48;4.35;;;3.63;;
151;SDS011;68;48.792;9.164;2023-02-01T02:01:15;3.50;;;3.22;;
151;SDS011;68;48.792;9.164;2023-02-01T02:03:43;4.38;;;3.45;;
151;SDS011;68;48.792;9.164;2023-02-01T02:06:15;3.50;;;3.30;;
151;SDS011;68;48.792;9.164;2023-02-01T02:08:46;3.28;;;3.13;;
151;SDS011;68;48.792;9.164;2023-02-01T02:11:13;2.92;;;2.72;;
151;SDS011;68;48.792;9.164;2023-02-01T02:13:43;4.20;;;3.53;;
151;SDS011;68;48.792;9.164;2023-02-01T02:16:17;3.78;;;3.50;;
151;SDS011;68;48.792;9.164;2023-02-01T02:19:14;4.13;;;3.22;;
151;SDS011;68;48.792;9.164;2023-02-01T02:22:10;3.63;;;3.47;;
151;SDS011;68;48.792;9.164;2023-02-01T02:28:03;4.20;;;3.95;;
151;SDS011;68;48.792;9.164;2023-02-01T02:30:44;4.13;;;3.75;;
151;SDS011;68;48.792;9.164;2023-02-01T02:33:35;3.58;;;3.42;;
151;SDS011;68;48.792;9.164;2023-02-01T02:36:13;4.25;;;3.60;;
151;SDS011;68;48.792;9.164;2023-02-01T02:38:47;5.55;;;4.30;;
151;SDS011;68;48.792;9.164;2023-02-01T02:41:19;4.80;;;4.10;;
151;SDS011;68;48.792;9.164;2023-02-01T02:44:09;5.38;;;4.40;;
151;SDS011;68;48.792;9.164;2023-02-01T02:46:58;4.60;;;4.00;;
151;SDS011;68;48.792;9.164;2023-02-01T02:49:51;4.03;;;3.80;;
151;SDS011;68;48.792;9.164;2023-02-01T02:52:36;10.48;;;6.85;;
151;SDS011;68;48.792;9.164;2023-02-01T02:55:26;6.97;;;5.40;;
151;SDS011;68;48.792;9.164;2023-02-01T02:57:54;4.60;;;4.30;;
151;SDS011;68;48.792;9.164;2023-02-01T03:00:40;4.60;;;4.28;;
151;SDS011;68;48.792;9.164;2023-02-01T03:03:26;4.70;;;4.30;;
151;SDS011;68;48.792;9.164;2023-02-01T03:06:13;6.45;;;4.82;;
151;SDS011;68;48.792;9.164;2023-02-01T03:08:42;5.60;;;4.65;;
151;SDS011;68;48.792;9.164;2023-02-01T03:11:10;5.60;;;4.70;;
151;SDS011;68;48.792;9.164;2023-02-01T03:13:40;6.13;;;5.05;;
151;SDS011;68;48.792;9.164;2023-02-01T03:16:10;5.78;;;4.75;;
151;SDS011;68;48.792;9.164;2023-02-01T03:18:43;7.35;;;5.00;;
151;SDS011;68;48.792;9.164;2023-02-01T03:21:16;5.80;;;4.80;;
151;SDS011;68;48.792;9.164;2023-02-01T03:23:47;8.45;;;6.30;;
151;SDS011;68;48.792;9.164;2023-02-01T03:26:17;10.15;;;5.63;;
151;SDS011;68;48.792;9.164;2023-02-01T03:28:48;6.65;;;5.25;;
151;SDS011;68;48.792;9.164;2023-02-01T03:31:20;6.35;;;5.00;;
151;SDS011;68;48.792;9.164;2023-02-01T03:33:48;6.10;;;5.30;;
151;SDS011;68;48.792;9.164;2023-02-01T03:36:17;5.15;;;4.93;;
151;SDS011;68;48.792;9.164;2023-02-01T03:38:51;5.45;;;4.93;;
151;SDS011;68;48.792;9.164;2023-02-01T03:41:26;5.95;;;5.03;;
151;SDS011;68;48.792;9.164;2023-02-01T03:43:58;8.02;;;5.15;;
151;SDS011;68;48.792;9.164;2023-02-01T03:46:30;7.20;;;5.47;;
151;SDS011;68;48.792;9.164;2023-02-01T03:49:00;6.70;;;5.60;;
151;SDS011;68;48.792;9.164;2023-02-01T03:51:32;7.20;;;4.95;;
151;SDS011;68;48.792;9.164;2023-02-01T03:53:59;4.90;;;4.60;;
151;SDS011;68;48.792;9.164;2023-02-01T03:56:28;5.55;;;5.00;;
151;SDS011;68;48.792;9.164;2023-02-01T03:58:57;7.40;;;5.25;;
151;SDS011;68;48.792;9.164;2023-02-01T04:01:25;5.75;;;4.90;;
151;SDS011;68;48.792;9.164;2023-02-01T04:03:53;5.85;;;4.80;;
151;SDS011;68;48.792;9.164;2023-02-01T04:06:20;7.35;;;4.85;;
151;SDS011;68;48.792;9.164;2023-02-01T04:08:48;5.57;;;4.65;;
151;SDS011;68;48.792;9.164;2023-02-01T04:11:14;4.65;;;4.38;;
151;SDS011;68;48.792;9.164;2023-02-01T04:13:41;5.60;;;4.85;;
151;SDS011;68;48.792;9.164;2023-02-01T04:16:08;5.55;;;4.65;;
151;SDS011;68;48.792;9.164;2023-02-01T04:18:35;6.55;;;5.50;;
151;SDS011;68;48.792;9.164;2023-02-01T04:21:02;5.45;;;5.10;;
151;SDS011;68;48.792;9.164;2023-02-01T04:23:29;5.97;;;4.85;;
151;SDS011;68;48.792;9.164;2023-02-01T04:26:00;5.65;;;5.05;;
151;SDS011;68;48.792;9.164;2023-02-01T04:28:27;5.07;;;4.78;;
151;SDS011;68;48.792;9.164;2023-02-01T04:30:55;5.50;;;4.80;;
151;SDS011;68;48.792;9.164;2023-02-01T04:33:22;5.45;;;4.45;;
151;SDS011;68;48.792;9.164;2023-02-01T04:35:48;4.43;;;3.95;;
151;SDS011;68;48.792;9.164;2023-02-01T04:38:15;5.85;;;4.80;;
151;SDS011;68;48.792;9.164;2023-02-01T04:40:42;4.50;;;4.22;;
151;SDS011;68;48.792;9.164;2023-02-01T04:43:10;4.80;;;4.20;;
151;SDS011;68;48.792;9.164;2023-02-01T04:45:37;4.40;;;4.15;;
151;SDS011;68;48.792;9.164;2023-02-01T04:48:04;5.20;;;4.00;;
151;SDS011;68;48.792;9.164;2023-02-01T04:50:31;4.00;;;3.67;;
151;SDS011;68;48.792;9.164;2023-02-01T04:52:58;3.83;;;3.65;;
151;SDS011;68;48.792;9.164;2023-02-01T04:55:24;3.95;;;3.80;;
151;SDS011;68;48.792;9.164;2023-02-01T04:57:51;4.47;;;4.05;;
151;SDS011;68;48.792;9.164;2023-02-01T05:00:19;6.10;;;3.97;;
151;SDS011;68;48.792;9.164;2023-02-01T05:02:46;5.50;;;4.50;;
151;SDS011;68;48.792;9.164;2023-02-01T05:05:13;5.93;;;3.90;;
151;SDS011;68;48.792;9.164;2023-02-01T05:07:40;3.83;;;3.70;;
151;SDS011;68;48.792;9.164;2023-02-01T05:10:08;4.47;;;4.07;;
151;SDS011;68;48.792;9.164;2023-02-01T05:12:35;4.30;;;4.00;;
151;SDS011;68;48.792;9.164;2023-02-01T05:15:20;4.45;;;3.80;;
151;SDS011;68;48.792;9.164;2023-02-01T05:17:47;3.88;;;3.63;;
151;SDS011;68;48.792;9.164;2023-02-01T05:20:14;4.07;;;3.78;;
151;SDS011;68;48.792;9.164;2023-02-01T05:22:40;4.80;;;3.97;;
151;SDS011;68;48.792;9.164;2023-02-01T05:25:08;6.05;;;4.22;;
151;SDS011;68;48.792;9.164;2023-02-01T05:27:35;5.13;;;4.30;;
151;SDS011;68;48.792;9.164;2023-02-01T05:30:02;4.30;;;4.00;;
151;SDS011;68;48.792;9.164;2023-02-01T05:32:31;4.63;;;3.80;;
151;SDS011;68;48.792;9.164;2023-02-01T05:34:58;5.55;;;4.57;;
151;SDS011;68;48.792;9.164;2023-02-01T05:37:24;4.85;;;4.05;;
151;SDS011;68;48.792;9.164;2023-02-01T05:39:51;4.53;;;4.00;;
151;SDS011;68;48.792;9.164;2023-02-01T05:42:18;4.95;;;4.30;;
151;SDS011;68;48.792;9.164;2023-02-01T05:44:45;4.60;;;4.22;;
151;SDS011;68;48.792;9.164;2023-02-01T05:47:12;6.18;;;4.80;;
151;SDS011;68;48.792;9.164;2023-02-01T05:49:40;4.90;;;4.25;;
151;SDS011;68;48.792;9.164;2023-02-01T05:52:07;5.00;;;4.38;;
151;SDS011;68;48.792;9.164;2023-02-01T05:54:33;4.90;;;3.90;;
151;SDS011;68;48.792;9.164;2023-02-01T05:57:00;4.97;;;4.32;;
151;SDS011;68;48.792;9.164;2023-02-01T05:59:27;4.85;;;4.32;;
151;SDS011;68;48.792;9.164;2023-02-01T06:01:54;4.75;;;4.53;;
151;SDS011;68;48.792;9.164;2023-02-01T06:04:21;4.70;;;4.40;;
151;SDS011;68;48.792;9.164;2023-02-01T06:06:49;7.72;;;4.80;;
151;SDS011;68;48.792;9.164;2023-02-01T06:09:16;6.53;;;4.93;;
151;SDS011;68;48.792;9.164;2023-02-01T06:11:42;8.25;;;5.57;;
151;SDS011;68;48.792;9.164;2023-02-01T06:14:09;6.57;;;4.78;;
151;SDS011;68;48.792;9.164;2023-02-01T06:16:36;6.70;;;4.75;;
151;SDS011;68;48.792;9.164;2023-02-01T06:19:03;10.43;;;5.28;;
151;SDS011;68;48.792;9.164;2023-02-01T06:21:29;9.75;;;5.10;;
151;SDS011;68;48.792;9.164;2023-02-01T06:23:57;8.40;;;5.10;;
151;SDS011;68;48.792;9.164;2023-02-01T06:26:24;6.20;;;5.00;;
151;SDS011;68;48.792;9.164;2023-02-01T06:28:53;5.15;;;4.60;;
151;SDS011;68;48.792;9.164;2023-02-01T06:31:20;5.78;;;4.75;;
151;SDS011;68;48.792;9.164;2023-02-01T06:33:47;5.80;;;4.70;;
151;SDS011;68;48.792;9.164;2023-02-01T06:36:14;5.25;;;4.60;;
151;SDS011;68;48.792;9.164;2023-02-01T06:38:43;5.80;;;4.93;;
151;SDS011;68;48.792;9.164;2023-02-01T06:41:11;6.90;;;4.45;;
151;SDS011;68;48.792;9.164;2023-02-01T06:43:38;6.13;;;4.70;;
151;SDS011;68;48.792;9.164;2023-02-01T06:46:06;5.78;;;4.40;;
151;SDS011;68;48.792;9.164;2023-02-01T06:48:34;7.90;;;4.65;;
151;SDS011;68;48.792;9.164;2023-02-01T06:51:01;6.35;;;4.35;;
151;SDS011;68;48.792;9.164;2023-02-01T06:53:27;8.80;;;4.32;;
151;SDS011;68;48.792;9.164;2023-02-01T06:55:54;9.68;;;4.50;;
151;SDS011;68;48.792;9.164;2023-02-01T06:58:24;9.15;;;4.90;;
151;SDS011;68;48.792;9.164;2023-02-01T07:00:54;8.73;;;5.25;;
151;SDS011;68;48.792;9.164;2023-02-01T07:03:20;6.45;;;5.05;;
151;SDS011;68;48.792;9.164;2023-02-01T07:05:47;12.68;;;4.78;;
151;SDS011;68;48.792;9.164;2023-02-01T07:08:14;6.25;;;5.00;;
151;SDS011;68;48.792;9.164;2023-02-01T07:10:41;6.22;;;4.43;;
151;SDS011;68;48.792;9.164;2023-02-01T07:13:07;6.65;;;4.95;;
151;SDS011;68;48.792;9.164;2023-02-01T07:15:36;10.45;;;5.60;;
151;SDS011;68;48.792;9.164;2023-02-01T07:18:02;9.60;;;5.07;;
151;SDS011;68;48.792;9.164;2023-02-01T07:20:29;8.85;;;5.28;;
151;SDS011;68;48.792;9.164;2023-02-01T07:22:56;8.40;;;5.10;;
151;SDS011;68;48.792;9.164;2023-02-01T07:25:23;8.18;;;5.35;;
151;SDS011;68;48.792;9.164;2023-02-01T07:27:50;9.05;;;5.25;;
151;SDS011;68;48.792;9.164;2023-02-01T07:30:17;7.40;;;5.60;;
151;SDS011;68;48.792;9.164;2023-02-01T07:32:45;8.32;;;5.47;;
151;SDS011;68;48.792;9.164;2023-02-01T07:35:12;7.30;;;5.22;;
151;SDS011;68;48.792;9.164;2023-02-01T07:37:40;11.38;;;5.22;;
151;SDS011;68;48.792;9.164;2023-02-01T07:40:07;8.55;;;5.20;;
151;SDS011;68;48.792;9.164;2023-02-01T07:42:35;9.00;;;5.30;;
151;SDS011;68;48.792;9.164;2023-02-01T07:45:01;9.07;;;5.55;;
151;SDS011;68;48.792;9.164;2023-02-01T07:47:29;15.18;;;5.75;;
151;SDS011;68;48.792;9.164;2023-02-01T07:49:57;10.68;;;5.80;;
151;SDS011;68;48.792;9.164;2023-02-01T07:52:24;11.10;;;5.50;;
151;SDS011;68;48.792;9.164;2023-02-01T07:54:53;7.10;;;5.60;;
151;SDS011;68;48.792;9.164;2023-02-01T07:57:20;6.50;;;4.85;;
151;SDS011;68;48.792;9.164;2023-02-01T07:59:46;10.30;;;6.80;;
151;SDS011;68;48.792;9.164;2023-02-01T08:02:45;10.00;;;6.05;;
151;SDS011;68;48.792;9.164;2023-02-01T08:05:13;11.82;;;5.60;;
151;SDS011;68;48.792;9.164;2023-02-01T08:07:40;12.27;;;5.78;;
151;SDS011;68;48.792;9.164;2023-02-01T08:10:07;11.57;;;5.10;;
151;SDS011;68;48.792;9.164;2023-02-01T08:12:36;7.97;;;5.18;;
151;SDS011;68;48.792;9.164;2023-02-01T08:15:03;14.07;;;6.03;;
151;SDS011;68;48.792;9.164;2023-02-01T08:17:31;10.40;;;5.50;;
151;SDS011;68;48.792;9.164;2023-02-01T08:19:58;12.98;;;5.90;;
151;SDS011;68;48.792;9.164;2023-02-01T08:22:26;11.73;;;5.50;;
151;SDS011;68;48.792;9.164;2023-02-01T08:24:57;10.02;;;5.20;;
151;SDS011;68;48.792;9.164;2023-02-01T08:27:26;12.85;;;5.13;;
151;SDS011;68;48.792;9.164;2023-02-01T08:29:53;11.20;;;5.28;;
151;SDS011;68;48.792;9.164;2023-02-01T08:32:20;9.38;;;5.53;;
151;SDS011;68;48.792;9.164;2023-02-01T08:34:46;9.45;;;4.95;;
151;SDS011;68;48.792;9.164;2023-02-01T08:37:13;11.85;;;6.00;;
151;SDS011;68;48.792;9.164;2023-02-01T08:39:41;11.48;;;4.95;;
151;SDS011;68;48.792;9.164;2023-02-01T08:42:09;13.10;;;5.38;;
151;SDS011;68;48.792;9.164;2023-02-01T08:44:54;13.25;;;5.40;;
151;SDS011;68;48.792;9.164;2023-02-01T08:47:21;15.07;;;5.32;;
151;SDS011;68;48.792;9.164;2023-02-01T08:49:48;8.93;;;4.85;;
151;SDS011;68;48.792;9.164;2023-02-01T08:52:14;10.35;;;4.90;;
151;SDS011;68;48.792;9.164;2023-02-01T08:54:42;17.23;;;5.18;;
151;SDS011;68;48.792;9.164;2023-02-01T08:57:09;13.00;;;5.60;;
151;SDS011;68;48.792;9.164;2023-02-01T08:59:36;11.52;;;4.65;;
151;SDS011;68;48.792;9.164;2023-02-01T09:02:03;10.75;;;4.80;;
151;SDS011;68;48.792;9.164;2023-02-01T09:04:30;10.75;;;4.70;;
151;SDS011;68;48.792;9.164;2023-02-01T09:06:57;19.10;;;4.90;;
151;SDS011;68;48.792;9.164;2023-02-01T09:09:24;12.07;;;5.07;;
151;SDS011;68;48.792;9.164;2023-02-01T09:11:54;8.77;;;4.85;;
151;SDS011;68;48.792;9.164;2023-02-01T09:14:21;12.25;;;4.90;;
151;SDS011;68;48.792;9.164;2023-02-01T09:16:48;11.73;;;5.15;;
151;SDS011;68;48.792;9.164;2023-02-01T09:19:15;14.73;;;4.95;;
151;SDS011;68;48.792;9.164;2023-02-01T09:21:41;11.60;;;5.28;;
151;SDS011;68;48.792;9.164;2023-02-01T09:24:08;10.32;;;4.70;;
151;SDS011;68;48.792;9.164;2023-02-01T09:26:36;8.82;;;4.63;;
151;SDS011;68;48.792;9.164;2023-02-01T09:29:05;9.68;;;4.70;;
151;SDS011;68;48.792;9.164;2023-02-01T09:31:36;14.10;;;5.20;;
151;SDS011;68;48.792;9.164;2023-02-01T09:34:03;13.70;;;4.80;;
151;SDS011;68;48.792;9.164;2023-02-01T09:36:30;15.02;;;5.50;;
151;SDS011;68;48.792;9.164;2023-02-01T09:38:57;12.27;;;5.10;;
151;SDS011;68;48.792;9.164;2023-02-01T09:41:27;11.55;;;4.80;;
151;SDS011;68;48.792;9.164;2023-02-01T09:44:05;14.68;;;4.78;;
151;SDS011;68;48.792;9.164;2023-02-01T09:46:39;9.98;;;4.55;;
151;SDS011;68;48.792;9.164;2023-02-01T09:49:08;10.70;;;4.70;;
151;SDS011;68;48.792;9.164;2023-02-01T09:51:39;10.98;;;4.95;;
151;SDS011;68;48.792;9.164;2023-02-01T09:54:11;13.40;;;5.20;;
151;SDS011;68;48.792;9.164;2023-02-01T09:56:42;14.52;;;4.88;;
151;SDS011;68;48.792;9.164;2023-02-01T09:59:17;17.38;;;5.00;;
151;SDS011;68;48.792;9.164;2023-02-01T10:01:51;10.98;;;4.65;;
151;SDS011;68;48.792;9.164;2023-02-01T10:04:18;20.35;;;5.82;;
151;SDS011;68;48.792;9.164;2023-02-01T10:06:48;14.43;;;5.15;;
151;SDS011;68;48.792;9.164;2023-02-01T10:09:25;14.50;;;5.10;;
151;SDS011;68;48.792;9.164;2023-02-01T10:15:30;16.35;;;4.68;;
151;SDS011;68;48.792;9.164;2023-02-01T10:18:25;14.27;;;5.88;;
151;SDS011;68;48.792;9.164;2023-02-01T10:21:06;16.42;;;4.65;;
151;SDS011;68;48.792;9.164;2023-02-01T10:24:02;18.10;;;4.05;;
151;SDS011;68;48.792;9.164;2023-02-01T10:26:40;12.68;;;4.07;;
151;SDS011;68;48.792;9.164;2023-02-01T10:29:12;14.82;;;4.30;;
151;SDS011;68;48.792;9.164;2023-02-01T10:31:44;13.43;;;4.75;;
151;SDS011;68;48.792;9.164;2023-02-01T10:34:15;13.32;;;4.55;;
151;SDS011;68;48.792;9.164;2023-02-01T10:36:49;14.13;;;4.10;;
151;SDS011;68;48.792;9.164;2023-02-01T10:39:20;10.25;;;4.53;;
151;SDS011;68;48.792;9.164;2023-02-01T10:41:47;6.47;;;2.95;;
151;SDS011;68;48.792;9.164;2023-02-01T10:44:15;10.40;;;3.65;;
151;SDS011;68;48.792;9.164;2023-02-01T10:46:45;13.68;;;4.70;;
151;SDS011;68;48.792;9.164;2023-02-01T10:49:13;13.45;;;4.00;;
151;SDS011;68;48.792;9.164;2023-02-01T10:51:45;11.65;;;4.28;;
151;SDS011;68;48.792;9.164;2023-02-01T10:54:15;11.18;;;4.60;;
151;SDS011;68;48.792;9.164;2023-02-01T10:56:45;22.80;;;5.20;;
151;SDS011;68;48.792;9.164;2023-02-01T10:59:15;10.63;;;4.20;;
151;SDS011;68;48.792;9.164;2023-02-01T11:01:45;17.15;;;4.53;;
151;SDS011;68;48.792;9.164;2023-02-01T11:04:13;10.27;;;4.60;;
151;SDS011;68;48.792;9.164;2023-02-01T11:06:41;16.65;;;4.70;;
151;SDS011;68;48.792;9.164;2023-02-01T11:09:10;10.90;;;4.35;;
151;SDS011;68;48.792;9.164;2023-02-01T11:11:56;11.65;;;4.00;;
151;SDS011;68;48.792;9.164;2023-02-01T11:14:28;12.73;;;4.05;;
151;SDS011;68;48.792;9.164;2023-02-01T11:17:02;16.02;;;4.95;;
151;SDS011;68;48.792;9.164;2023-02-01T11:19:44;14.48;;;3.60;;
151;SDS011;68;48.792;9.164;2023-02-01T11:22:11;8.82;;;4.30;;
151;SDS011;68;48.792;9.164;2023-02-01T11:24:39;11.10;;;4.40;;
151;SDS011;68;48.792;9.164;2023-02-01T11:27:12;13.32;;;4.35;;
151;SDS011;68;48.792;9.164;2023-02-01T11:29:42;13.43;;;4.45;;
151;SDS011;68;48.792;9.164;2023-02-01T11:32:13;13.25;;;4.15;;
151;SDS011;68;48.792;9.164;2023-02-01T11:34:42;15.35;;;5.10;;
151;SDS011;68;48.792;9.164;2023-02-01T11:37:15;14.52;;;4.32;;
151;SDS011;68;48.792;9.164;2023-02-01T11:39:52;10.07;;;4.18;;
151;SDS011;68;48.792;9.164;2023-02-01T11:42:21;11.27;;;4.43;;
151;SDS011;68;48.792;9.164;2023-02-01T11:44:48;14.35;;;3.65;;
151;SDS011;68;48.792;9.164;2023-02-01T11:47:20;12.70;;;4.38;;
151;SDS011;68;48.792;9.164;2023-02-01T11:49:49;11.10;;;3.60;;
151;SDS011;68;48.792;9.164;2023-02-01T11:52:18;9.48;;;3.60;;
151;SDS011;68;48.792;9.164;2023-02-01T11:55:01;11.75;;;4.10;;
151;SDS011;68;48.792;9.164;2023-02-01T11:57:41;12.68;;;3.88;;
151;SDS011;68;48.792;9.164;2023-02-01T12:00:25;16.00;;;4.18;;
151;SDS011;68;48.792;9.164;2023-02-01T12:06:13;11.70;;;3.78;;
151;SDS011;68;48.792;9.164;2023-02-01T12:08:56;11.35;;;3.63;;
151;SDS011;68;48.792;9.164;2023-02-01T12:11:36;16.10;;;5.55;;
151;SDS011;68;48.792;9.164;2023-02-01T12:14:14;14.70;;;4.10;;
151;SDS011;68;48.792;9.164;2023-02-01T12:16:53;14.20;;;3.65;;
151;SDS011;68;48.792;9.164;2023-02-01T12:19:40;14.00;;;4.50;;
151;SDS011;68;48.792;9.164;2023-02-01T12:22:23;9.25;;;3.67;;
151;SDS011;68;48.792;9.164;2023-02-01T12:25:09;14.75;;;4.68;;
151;SDS011;68;48.792;9.164;2023-02-01T12:27:55;7.93;;;3.55;;
151;SDS011;68;48.792;9.164;2023-02-01T12:30:48;10.27;;;3.78;;
151;SDS011;68;48.792;9.164;2023-02-01T12:33:31;14.90;;;4.43;;
151;SDS011;68;48.792;9.164;2023-02-01T12:36:12;12.07;;;3.95;;
151;SDS011;68;48.792;9.164;2023-02-01T12:38:46;17.95;;;4.50;;
151;SDS011;68;48.792;9.164;2023-02-01T12:41:33;8.00;;;3.10;;
151;SDS011;68;48.792;9.164;2023-02-01T12:44:17;11.95;;;3.60;;
151;SDS011;68;48.792;9.164;2023-02-01T12:46:53;15.32;;;4.15;;
151;SDS011;68;48.792;9.164;2023-02-01T12:49:23;8.20;;;3.30;;
151;SDS011;68;48.792;9.164;2023-02-01T12:52:01;10.05;;;4.05;;
151;SDS011;68;48.792;9.164;2023-02-01T12:54:32;9.88;;;4.18;;
151;SDS011;68;48.792;9.164;2023-02-01T12:57:04;10.30;;;3.78;;
151;SDS011;68;48.792;9.164;2023-02-01T12:59:33;6.53;;;3.42;;
151;SDS011;68;48.792;9.164;2023-02-01T13:02:05;12.70;;;4.53;;
151;SDS011;68;48.792;9.164;2023-02-01T13:04:49;13.02;;;4.80;;
151;SDS011;68;48.792;9.164;2023-02-01T13:07:25;12.38;;;3.80;;
151;SDS011;68;48.792;9.164;2023-02-01T13:09:56;13.05;;;4.50;;
151;SDS011;68;48.792;9.164;2023-02-01T13:12:28;12.95;;;3.70;;
151;SDS011;68;48.792;9.164;2023-02-01T13:15:00;10.18;;;4.15;;
151;SDS011;68;48.792;9.164;2023-02-01T13:17:31;11.27;;;4.43;;
151;SDS011;68;48.792;9.164;2023-02-01T13:20:00;14.77;;;4.60;;
151;SDS011;68;48.792;9.164;2023-02-01T13:22:33;9.85;;;4.28;;
151;SDS011;68;48.792;9.164;2023-02-01T13:25:03;10.48;;;4.07;;
151;SDS011;68;48.792;9.164;2023-02-01T13:27:37;9.45;;;3.97;;
151;SDS011;68;48.792;9.164;2023-02-01T13:30:06;13.40;;;3.70;;
151;SDS011;68;48.792;9.164;2023-02-01T13:32:48;9.52;;;3.75;;
151;SDS011;68;48.792;9.164;2023-02-01T13:35:43;13.05;;;4.30;;
151;SDS011;68;48.792;9.164;2023-02-01T13:38:29;10.45;;;4.10;;
151;SDS011;68;48.792;9.164;2023-02-01T13:41:24;11.32;;;3.83;;
151;SDS011;68;48.792;9.164;2023-02-01T13:43:55;11.73;;;4.53;;
151;SDS011;68;48.792;9.164;2023-02-01T13:46:24;8.23;;;3.70;;
151;SDS011;68;48.792;9.164;2023-02-01T13:48:52;10.00;;;4.18;;
151;SDS011;68;48.792;9.164;2023-02-01T13:51:31;12.63;;;4.35;;
151;SDS011;68;48.792;9.164;2023-02-01T13:54:02;11.82;;;4.45;;
151;SDS011;68;48.792;9.164;2023-02-01T13:56:39;11.65;;;4.10;;
151;SDS011;68;48.792;9.164;2023-02-01T14:08:21;11.82;;;3.80;;
151;SDS011;68;48.792;9.164;2023-02-01T14:10:52;10.52;;;4.20;;
151;SDS011;68;48.792;9.164;2023-02-01T14:13:23;10.73;;;4.60;;
151;SDS011;68;48.792;9.164;2023-02-01T14:16:10;7.95;;;3.70;;
151;SDS011;68;48.792;9.164;2023-02-01T14:18:58;11.52;;;4.13;;
151;SDS011;68;48.792;9.164;2023-02-01T14:21:27;12.90;;;4.35;;
151;SDS011;68;48.792;9.164;2023-02-01T14:23:57;16.17;;;5.05;;
151;SDS011;68;48.792;9.164;2023-02-01T14:26:40;9.82;;;3.72;;
151;SDS011;68;48.792;9.164;2023-02-01T14:29:19;13.23;;;3.83;;
151;SDS011;68;48.792;9.164;2023-02-01T14:31:58;13.40;;;4.65;;
151;SDS011;68;48.792;9.164;2023-02-01T14:34:31;9.00;;;4.05;;
151;SDS011;68;48.792;9.164;2023-02-01T14:37:08;14.20;;;4.60;;
151;SDS011;68;48.792;9.164;2023-02-01T14:39:38;12.45;;;3.97;;
151;SDS011;68;48.792;9.164;2023-02-01T14:42:21;10.88;;;4.10;;
151;SDS011;68;48.792;9.164;2023-02-01T14:44:51;14.70;;;4.95;;
151;SDS011;68;48.792;9.164;2023-02-01T14:47:29;10.20;;;4.32;;
151;SDS011;68;48.792;9.164;2023-02-01T14:50:04;14.30;;;4.10;;
151;SDS011;68;48.792;9.164;2023-02-01T14:52:47;10.43;;;4.55;;
151;SDS011;68;48.792;9.164;2023-02-01T14:55:18;9.00;;;4.30;;
151;SDS011;68;48.792;9.164;2023-02-01T14:57:52;14.73;;;4.45;;
151;SDS011;68;48.792;9.164;2023-02-01T15:00:22;12.73;;;4.30;;
151;SDS011;68;48.792;9.164;2023-02-01T15:02:52;9.02;;;4.53;;
151;SDS011;68;48.792;9.164;2023-02-01T15:05:23;16.42;;;5.45;;
151;SDS011;68;48.792;9.164;2023-02-01T15:07:56;12.77;;;4.20;;
151;SDS011;68;48.792;9.164;2023-02-01T15:10:24;9.57;;;4.40;;
151;SDS011;68;48.792;9.164;2023-02-01T15:12:52;13.10;;;4.55;;
151;SDS011;68;48.792;9.164;2023-02-01T15:15:20;11.70;;;4.53;;
151;SDS011;68;48.792;9.164;2023-02-01T15:17:49;15.55;;;4.55;;
151;SDS011;68;48.792;9.164;2023-02-01T15:20:18;11.68;;;4.70;;
151;SDS011;68;48.792;9.164;2023-02-01T15:22:51;10.23;;;4.28;;
151;SDS011;68;48.792;9.164;2023-02-01T15:25:20;12.43;;;4.20;;
151;SDS011;68;48.792;9.164;2023-02-01T15:27:48;15.93;;;4.72;;
151;SDS011;68;48.792;9.164;2023-02-01T15:30:18;8.13;;;3.97;;
151;SDS011;68;48.792;9.164;2023-02-01T15:32:47;10.57;;;4.22;;
151;SDS011;68;48.792;9.164;2023-02-01T15:35:33;9.20;;;4.30;;
151;SDS011;68;48.792;9.164;2023-02-01T15:40:56;11.68;;;4.15;;
151;SDS011;68;48.792;9.164;2023-02-01T15:43:24;11.88;;;3.80;;
151;SDS011;68;48.792;9.164;2023-02-01T15:45:56;10.50;;;4.10;;
151;SDS011;68;48.792;9.164;2023-02-01T15:48:26;11.20;;;3.78;;
151;SDS011;68;48.792;9.164;2023-02-01T15:51:01;12.25;;;4.20;;
151;SDS011;68;48.792;9.164;2023-02-01T15:53:28;8.68;;;4.10;;
151;SDS011;68;48.792;9.164;2023-02-01T15:55:57;12.88;;;4.10;;
151;SDS011;68;48.792;9.164;2023-02-01T15:58:26;18.30;;;4.72;;
151;SDS011;68;48.792;9.164;2023-02-01T16:00:58;13.13;;;3.60;;
151;SDS011;68;48.792;9.164;2023-02-01T16:03:33;17.05;;;6.82;;
151;SDS011;68;48.792;9.164;2023-02-01T16:06:02;12.10;;;4.10;;
151;SDS011;68;48.792;9.164;2023-02-01T16:08:31;10.43;;;3.70;;
151;SDS011;68;48.792;9.164;2023-02-01T16:11:01;13.38;;;4.20;;
151;SDS011;68;48.792;9.164;2023-02-01T16:13:40;10.65;;;4.10;;
151;SDS011;68;48.792;9.164;2023-02-01T16:16:09;6.95;;;3.20;;
151;SDS011;68;48.792;9.164;2023-02-01T16:18:38;12.57;;;4.32;;
151;SDS011;68;48.792;9.164;2023-02-01T16:21:06;14.27;;;3.90;;
151;SDS011;68;48.792;9.164;2023-02-01T16:23:33;9.98;;;4.32;;
151;SDS011;68;48.792;9.164;2023-02-01T16:26:00;11.80;;;4.30;;
151;SDS011;68;48.792;9.164;2023-02-01T16:28:27;7.63;;;3.58;;
151;SDS011;68;48.792;9.164;2023-02-01T16:30:54;11.55;;;3.80;;
151;SDS011;68;48.792;9.164;2023-02-01T16:33:24;10.70;;;3.85;;
151;SDS011;68;48.792;9.164;2023-02-01T16:35:52;17.17;;;5.20;;
151;SDS011;68;48.792;9.164;2023-02-01T16:38:22;11.05;;;4.88;;
151;SDS011;68;48.792;9.164;2023-02-01T16:40:49;11.13;;;4.50;;